createdAt,value
2018-09-01T00:01:03.572Z,99.90
2018-09-01T00:03:34.848Z,99.90
2018-09-01T00:06:06.431Z,99.90
2018-09-01T00:08:37.474Z,99.90
2018-09-01T00:11:09.123Z,99.90
2018-09-01T00:13:40.205Z,99.90
2018-09-01T00:16:11.384Z,99.90
2018-09-01T00:18:42.619Z,99.90
2018-09-01T00:21:14.056Z,99.90
2018-09-01T00:23:45.295Z,99.90
2018-09-01T00:26:17.044Z,99.90
2018-09-01T00:28:48.149Z,99.90
2018-09-01T00:31:19.351Z,99.90
2018-09-01T00:33:50.683Z,99.90
2018-09-01T00:36:22.187Z,99.90
2018-09-01T00:38:58.400Z,99.90
2018-09-01T00:41:29.610Z,99.90
2018-09-01T00:44:01.300Z,99.90
2018-09-01T00:46:33.676Z,99.90
2018-09-01T00:49:04.946Z,99.90
2018-09-01T00:51:35.918Z,99.90
2018-09-01T00:54:07.208Z,99.90
2018-09-01T00:56:39.111Z,99.90
2018-09-01T00:59:10.119Z,99.90
2018-09-01T01:01:41.171Z,99.90
2018-09-01T01:04:12.771Z,99.90
2018-09-01T01:06:44.101Z,99.90
2018-09-01T01:09:15.301Z,99.90
2018-09-01T01:11:46.454Z,99.90
2018-09-01T01:14:17.648Z,99.90
2018-09-01T01:16:48.856Z,99.90
2018-09-01T01:19:20.040Z,99.90
2018-09-01T01:21:51.188Z,99.90
2018-09-01T01:24:22.391Z,99.90
2018-09-01T01:26:56.350Z,99.90
2018-09-01T01:29:27.587Z,99.90
2018-09-01T01:31:59.329Z,99.90
2018-09-01T01:34:30.494Z,99.90
2018-09-01T01:37:01.690Z,99.90
2018-09-01T01:39:32.938Z,99.90
2018-09-01T01:42:04.318Z,99.90
2018-09-01T01:44:35.521Z,99.90
2018-09-01T01:47:06.707Z,99.90
2018-09-01T01:49:38.128Z,99.90
2018-09-01T01:52:09.262Z,99.90
2018-09-01T01:54:40.925Z,99.90
2018-09-01T01:57:13.327Z,99.90
2018-09-01T01:59:44.600Z,99.90
2018-09-01T02:02:15.699Z,99.90
2018-09-01T02:04:46.972Z,99.90
2018-09-01T02:07:18.179Z,99.90
2018-09-01T02:09:49.258Z,99.90
2018-09-01T02:12:20.351Z,99.90
2018-09-01T02:14:51.525Z,99.90
2018-09-01T02:17:22.744Z,99.90
2018-09-01T02:19:53.783Z,99.90
2018-09-01T02:22:24.936Z,99.90
2018-09-01T02:24:56.136Z,99.90
2018-09-01T02:27:27.471Z,99.90
2018-09-01T02:29:58.884Z,99.90
2018-09-01T02:32:29.915Z,99.90
2018-09-01T02:35:01.021Z,99.90
2018-09-01T02:37:32.099Z,99.90
2018-09-01T02:40:03.479Z,99.90
2018-09-01T02:42:35.516Z,99.90
2018-09-01T02:45:07.491Z,99.90
2018-09-01T02:47:38.802Z,99.90
2018-09-01T02:50:09.880Z,99.90
2018-09-01T02:52:41.015Z,99.90
2018-09-01T02:55:12.694Z,99.90
2018-09-01T02:57:43.981Z,99.90
2018-09-01T03:00:19.885Z,99.90
2018-09-01T03:02:51.079Z,99.90
2018-09-01T03:05:22.384Z,99.90
2018-09-01T03:07:54.312Z,99.90
2018-09-01T03:10:26.149Z,99.90
2018-09-01T03:12:57.453Z,99.90
2018-09-01T03:15:28.903Z,99.90
2018-09-01T03:17:59.998Z,99.90
2018-09-01T03:20:31.039Z,99.90
2018-09-01T03:23:02.391Z,99.90
2018-09-01T03:25:33.716Z,99.90
2018-09-01T03:28:04.977Z,99.90
2018-09-01T03:30:35.971Z,99.90
2018-09-01T03:33:07.459Z,99.90
2018-09-01T03:35:38.755Z,99.90
2018-09-01T03:38:09.964Z,99.90
2018-09-01T03:40:41.156Z,99.90
2018-09-01T03:43:12.496Z,99.90
2018-09-01T03:45:43.703Z,99.90
2018-09-01T03:48:14.853Z,99.90
2018-09-01T03:50:46.367Z,99.90
2018-09-01T03:53:17.550Z,99.90
2018-09-01T03:55:49.303Z,99.90
2018-09-01T03:58:20.383Z,99.90
2018-09-01T04:00:51.753Z,99.90
2018-09-01T04:03:22.996Z,99.90
2018-09-01T04:05:54.228Z,99.90
2018-09-01T04:08:25.387Z,99.90
2018-09-01T04:10:56.431Z,99.90
2018-09-01T04:13:27.788Z,99.90
2018-09-01T04:15:58.970Z,99.90
2018-09-01T04:18:30.628Z,99.90
2018-09-01T04:21:01.755Z,99.90
2018-09-01T04:23:32.950Z,99.90
2018-09-01T04:26:04.403Z,99.90
2018-09-01T04:28:35.736Z,99.90
2018-09-01T04:31:07.116Z,99.90
2018-09-01T04:33:39.584Z,99.90
2018-09-01T04:36:10.887Z,99.90
2018-09-01T04:38:41.883Z,99.90
2018-09-01T04:41:12.975Z,99.90
2018-09-01T04:43:44.358Z,99.90
2018-09-01T04:46:15.631Z,99.90
2018-09-01T04:48:46.852Z,99.90
2018-09-01T04:51:19.010Z,99.90
2018-09-01T04:53:50.192Z,99.90
2018-09-01T04:56:21.206Z,99.90
2018-09-01T04:58:52.366Z,99.90
2018-09-01T05:01:23.775Z,99.90
2018-09-01T05:03:54.948Z,99.90
2018-09-01T05:06:25.987Z,99.90
2018-09-01T05:08:57.386Z,99.90
2018-09-01T05:11:28.850Z,99.90
2018-09-01T05:14:00.104Z,99.90
2018-09-01T05:16:31.416Z,99.90
2018-09-01T05:19:02.846Z,99.90
2018-09-01T05:21:34.389Z,99.90
2018-09-01T05:24:06.023Z,99.90
2018-09-01T05:26:37.088Z,99.90
2018-09-01T05:29:08.535Z,99.90
2018-09-01T05:31:40.255Z,99.90
2018-09-01T05:34:11.978Z,99.90
2018-09-01T05:36:43.272Z,99.90
2018-09-01T05:39:14.409Z,99.90
2018-09-01T05:41:45.792Z,99.90
2018-09-01T05:44:17.007Z,99.90
2018-09-01T05:46:47.973Z,99.90
2018-09-01T05:49:18.943Z,99.90
2018-09-01T05:51:49.983Z,99.90
2018-09-01T05:54:20.926Z,99.90
2018-09-01T05:56:52.451Z,99.90
2018-09-01T05:59:23.903Z,99.90
2018-09-01T06:01:55.787Z,99.90
2018-09-01T06:04:27.097Z,99.90
2018-09-01T06:06:58.265Z,99.90
2018-09-01T06:09:29.301Z,99.90
2018-09-01T06:12:00.650Z,99.90
2018-09-01T06:14:31.860Z,99.90
2018-09-01T06:17:03.103Z,99.90
2018-09-01T06:19:34.260Z,99.90
2018-09-01T06:22:05.289Z,99.90
2018-09-01T06:24:36.903Z,99.90
2018-09-01T06:27:13.109Z,99.90
2018-09-01T06:29:44.459Z,99.90
2018-09-01T06:32:15.868Z,99.90
2018-09-01T06:34:47.092Z,99.90
2018-09-01T06:37:18.092Z,99.90
2018-09-01T06:39:49.280Z,99.90
2018-09-01T06:42:20.322Z,99.90
2018-09-01T06:44:51.694Z,99.90
2018-09-01T06:47:23.045Z,99.90
2018-09-01T06:49:54.231Z,99.90
2018-09-01T06:52:25.455Z,99.90
2018-09-01T06:54:56.920Z,99.90
2018-09-01T06:57:28.209Z,99.90
2018-09-01T06:59:59.223Z,99.90
2018-09-01T07:02:30.463Z,99.90
2018-09-01T07:05:01.821Z,99.90
2018-09-01T07:07:33.220Z,99.90
2018-09-01T07:10:04.606Z,99.90
2018-09-01T07:12:35.960Z,99.90
2018-09-01T07:15:07.309Z,99.90
2018-09-01T07:17:38.335Z,99.90
2018-09-01T07:20:09.783Z,99.90
2018-09-01T07:22:41.599Z,99.90
2018-09-01T07:25:12.944Z,99.90
2018-09-01T07:27:44.115Z,99.90
2018-09-01T07:30:15.176Z,99.90
2018-09-01T07:32:46.437Z,99.90
2018-09-01T07:35:17.487Z,99.90
2018-09-01T07:37:48.475Z,99.90
2018-09-01T07:40:19.669Z,99.90
2018-09-01T07:42:50.974Z,99.90
2018-09-01T07:45:22.571Z,99.90
2018-09-01T07:47:54.059Z,99.90
2018-09-01T07:50:25.442Z,99.90
2018-09-01T07:52:56.872Z,99.90
2018-09-01T07:55:28.396Z,99.90
2018-09-01T07:57:59.434Z,99.90
2018-09-01T08:00:31.582Z,99.90
2018-09-01T08:03:02.906Z,99.90
2018-09-01T08:05:34.852Z,99.90
2018-09-01T08:08:06.707Z,99.90
2018-09-01T08:10:37.840Z,99.90
2018-09-01T08:13:09.103Z,99.90
2018-09-01T08:15:40.308Z,99.90
2018-09-01T08:18:11.532Z,99.90
2018-09-01T08:20:43.327Z,99.90
2018-09-01T08:23:14.581Z,99.90
2018-09-01T08:25:45.867Z,99.90
2018-09-01T08:28:17.179Z,99.90
2018-09-01T08:30:48.399Z,99.90
2018-09-01T08:33:19.636Z,99.90
2018-09-01T08:35:51.274Z,99.90
2018-09-01T08:38:22.604Z,99.90
2018-09-01T08:40:53.826Z,99.90
2018-09-01T08:43:24.963Z,99.90
2018-09-01T08:45:56.132Z,99.90
2018-09-01T08:48:27.324Z,99.90
2018-09-01T08:50:58.788Z,99.90
2018-09-01T08:53:30.012Z,99.90
2018-09-01T08:56:01.323Z,99.90
2018-09-01T08:58:33.031Z,99.90
2018-09-01T09:01:04.101Z,99.90
2018-09-01T09:03:35.447Z,99.90
2018-09-01T09:06:06.664Z,99.90
2018-09-01T09:08:37.837Z,99.90
2018-09-01T09:11:09.399Z,99.90
2018-09-01T09:13:40.971Z,99.90
2018-09-01T09:16:12.498Z,99.90
2018-09-01T09:18:43.658Z,99.90
2018-09-01T09:21:15.002Z,99.90
2018-09-01T09:23:46.037Z,99.90
2018-09-01T09:26:17.445Z,99.90
2018-09-01T09:28:48.851Z,99.30
2018-09-01T09:31:20.945Z,99.10
2018-09-01T09:33:52.004Z,98.40
2018-09-01T09:36:23.135Z,98.10
2018-09-01T09:38:54.297Z,97.60
2018-09-01T09:41:25.580Z,98.00
2018-09-01T09:43:56.875Z,97.70
2018-09-01T09:46:27.869Z,96.70
2018-09-01T09:48:59.220Z,96.20
2018-09-01T09:51:30.673Z,95.10
2018-09-01T09:54:01.850Z,94.50
2018-09-01T09:56:33.024Z,92.50
2018-09-01T09:59:08.348Z,94.00
2018-09-01T10:01:40.365Z,91.90
2018-09-01T10:04:12.460Z,92.20
2018-09-01T10:06:43.491Z,90.60
2018-09-01T10:09:15.686Z,91.00
2018-09-01T10:11:47.215Z,90.70
2018-09-01T10:14:18.444Z,91.50
2018-09-01T10:16:49.685Z,90.50
2018-09-01T10:19:20.843Z,85.30
2018-09-01T10:21:51.873Z,88.00
2018-09-01T10:24:23.228Z,88.10
2018-09-01T10:26:54.318Z,84.50
2018-09-01T10:29:25.410Z,80.60
2018-09-01T10:31:56.613Z,79.80
2018-09-01T10:34:27.798Z,78.60
2018-09-01T10:36:59.003Z,80.90
2018-09-01T10:39:30.563Z,78.90
2018-09-01T10:42:01.804Z,77.20
2018-09-01T10:44:33.457Z,77.20
2018-09-01T10:47:04.809Z,77.70
2018-09-01T10:49:36.159Z,79.30
2018-09-01T10:52:07.561Z,79.70
2018-09-01T10:54:38.894Z,78.70
2018-09-01T10:57:10.108Z,77.60
2018-09-01T10:59:41.419Z,77.70
2018-09-01T11:02:12.494Z,76.20
2018-09-01T11:04:44.548Z,76.80
2018-09-01T11:07:15.712Z,77.30
2018-09-01T11:09:46.850Z,74.70
2018-09-01T11:12:18.338Z,74.20
2018-09-01T11:14:49.595Z,73.00
2018-09-01T11:17:20.799Z,71.70
2018-09-01T11:19:52.231Z,72.40
2018-09-01T11:22:23.545Z,70.60
2018-09-01T11:24:54.771Z,72.90
2018-09-01T11:27:25.872Z,72.60
2018-09-01T11:29:57.162Z,70.50
2018-09-01T11:32:28.377Z,68.50
2018-09-01T11:34:59.352Z,66.80
2018-09-01T11:37:30.550Z,68.00
2018-09-01T11:40:02.408Z,65.70
2018-09-01T11:42:34.067Z,62.90
2018-09-01T11:45:05.228Z,60.90
2018-09-01T11:47:36.474Z,60.70
2018-09-01T11:50:07.717Z,60.80
2018-09-01T11:52:39.066Z,58.70
2018-09-01T11:55:10.265Z,58.80
2018-09-01T11:57:41.287Z,58.30
2018-09-01T12:00:12.698Z,58.70
2018-09-01T12:02:44.506Z,58.10
2018-09-01T12:05:15.659Z,58.40
2018-09-01T12:07:46.986Z,58.80
2018-09-01T12:10:18.253Z,59.00
2018-09-01T12:12:49.635Z,59.10
2018-09-01T12:15:20.882Z,58.80
2018-09-01T12:17:51.976Z,58.40
2018-09-01T12:20:23.172Z,58.40
2018-09-01T12:22:54.533Z,57.80
2018-09-01T12:25:25.715Z,57.90
2018-09-01T12:27:56.936Z,57.20
2018-09-01T12:30:27.904Z,57.00
2018-09-01T12:32:58.942Z,56.40
2018-09-01T12:35:30.336Z,56.90
2018-09-01T12:38:01.709Z,53.90
2018-09-01T12:40:33.550Z,54.30
2018-09-01T12:43:04.928Z,55.20
2018-09-01T12:45:36.265Z,55.90
2018-09-01T12:48:07.728Z,55.80
2018-09-01T12:50:39.022Z,56.20
2018-09-01T12:53:10.255Z,55.20
2018-09-01T12:55:41.723Z,55.10
2018-09-01T12:58:13.009Z,54.70
2018-09-01T13:00:44.358Z,54.40
2018-09-01T13:03:15.592Z,54.00
2018-09-01T13:05:46.786Z,52.10
2018-09-01T13:08:17.776Z,52.10
2018-09-01T13:10:48.972Z,51.20
2018-09-01T13:13:20.268Z,51.80
2018-09-01T13:15:51.566Z,53.50
2018-09-01T13:18:22.710Z,52.90
2018-09-01T13:20:53.754Z,51.90
2018-09-01T13:23:25.727Z,52.00
2018-09-01T13:25:57.543Z,51.70
2018-09-01T13:28:28.851Z,50.20
2018-09-01T13:31:00.068Z,48.90
2018-09-01T13:33:31.080Z,49.70
2018-09-01T13:36:02.462Z,52.10
2018-09-01T13:38:34.271Z,52.10
2018-09-01T13:41:05.635Z,52.10
2018-09-01T13:43:36.902Z,53.40
2018-09-01T13:46:08.271Z,52.10
2018-09-01T13:48:39.427Z,51.20
2018-09-01T13:51:10.760Z,50.10
2018-09-01T13:53:41.800Z,48.40
2018-09-01T13:56:13.155Z,47.80
2018-09-01T13:58:44.366Z,48.70
2018-09-01T14:01:15.591Z,48.70
2018-09-01T14:03:47.298Z,48.90
2018-09-01T14:06:18.494Z,48.10
2018-09-01T14:08:49.690Z,47.00
2018-09-01T14:11:20.698Z,50.60
2018-09-01T14:13:52.040Z,51.10
2018-09-01T14:16:23.097Z,52.70
2018-09-01T14:18:54.575Z,51.60
2018-09-01T14:21:26.535Z,49.40
2018-09-01T14:23:57.846Z,47.30
2018-09-01T14:26:29.026Z,48.30
2018-09-01T14:29:00.037Z,48.10
2018-09-01T14:31:31.215Z,47.70
2018-09-01T14:34:06.180Z,48.70
2018-09-01T14:36:38.041Z,48.90
2018-09-01T14:39:11.306Z,49.70
2018-09-01T14:41:43.471Z,48.60
2018-09-01T14:44:14.721Z,48.40
2018-09-01T14:46:46.116Z,47.90
2018-09-01T14:49:17.414Z,47.60
2018-09-01T14:51:48.679Z,47.90
2018-09-01T14:54:20.016Z,48.00
2018-09-01T14:56:51.018Z,47.80
2018-09-01T14:59:22.284Z,46.20
2018-09-01T15:01:53.368Z,46.20
2018-09-01T15:04:24.383Z,46.00
2018-09-01T15:06:56.138Z,45.40
2018-09-01T15:09:27.148Z,45.90
2018-09-01T15:11:58.925Z,46.00
2018-09-01T15:14:31.382Z,46.10
2018-09-01T15:17:02.687Z,45.70
2018-09-01T15:19:33.879Z,44.90
2018-09-01T15:22:05.099Z,44.40
2018-09-01T15:24:36.115Z,44.80
2018-09-01T15:27:07.344Z,44.10
2018-09-01T15:29:38.953Z,44.10
2018-09-01T15:32:10.038Z,44.60
2018-09-01T15:34:41.050Z,43.00
2018-09-01T15:37:12.227Z,41.80
2018-09-01T15:39:43.434Z,41.50
2018-09-01T15:42:14.615Z,42.60
2018-09-01T15:44:45.830Z,42.20
2018-09-01T15:47:17.485Z,42.90
2018-09-01T15:49:48.774Z,43.40
2018-09-01T15:52:20.634Z,43.70
2018-09-01T15:54:51.946Z,43.40
2018-09-01T15:57:23.435Z,42.90
2018-09-01T15:59:54.523Z,43.10
2018-09-01T16:02:25.767Z,42.70
2018-09-01T16:04:57.092Z,43.30
2018-09-01T16:07:28.312Z,43.90
2018-09-01T16:10:00.036Z,44.00
2018-09-01T16:12:31.089Z,43.70
2018-09-01T16:15:02.318Z,43.90
2018-09-01T16:17:33.504Z,43.00
2018-09-01T16:20:04.832Z,42.30
2018-09-01T16:22:35.857Z,42.50
2018-09-01T16:25:07.517Z,42.50
2018-09-01T16:27:38.641Z,41.80
2018-09-01T16:30:09.939Z,42.50
2018-09-01T16:32:41.187Z,43.10
2018-09-01T16:35:12.399Z,44.70
2018-09-01T16:37:43.679Z,42.50
2018-09-01T16:40:15.830Z,41.70
2018-09-01T16:42:47.138Z,41.10
2018-09-01T16:45:18.466Z,42.00
2018-09-01T16:47:49.709Z,41.50
2018-09-01T16:50:20.946Z,42.70
2018-09-01T16:52:52.104Z,41.90
2018-09-01T16:55:23.293Z,42.50
2018-09-01T16:57:54.488Z,42.00
2018-09-01T17:00:25.739Z,41.70
2018-09-01T17:02:57.064Z,41.60
2018-09-01T17:05:28.277Z,42.40
2018-09-01T17:07:59.251Z,42.40
2018-09-01T17:10:30.264Z,42.90
2018-09-01T17:13:01.435Z,44.00
2018-09-01T17:15:32.646Z,44.90
2018-09-01T17:18:03.844Z,45.30
2018-09-01T17:20:34.835Z,45.10
2018-09-01T17:23:05.933Z,45.40
2018-09-01T17:25:43.511Z,45.60
2018-09-01T17:28:14.680Z,45.80
2018-09-01T17:30:45.999Z,46.40
2018-09-01T17:33:17.366Z,46.20
2018-09-01T17:35:48.663Z,46.50
2018-09-01T17:38:19.654Z,46.00
2018-09-01T17:40:50.850Z,46.20
2018-09-01T17:43:22.027Z,46.50
2018-09-01T17:45:53.035Z,47.60
2018-09-01T17:48:24.010Z,47.50
2018-09-01T17:50:55.256Z,47.60
2018-09-01T17:53:26.883Z,47.40
2018-09-01T17:55:58.303Z,47.40
2018-09-01T17:58:29.558Z,47.80
2018-09-01T18:01:00.817Z,48.30
2018-09-01T18:03:32.204Z,48.20
2018-09-01T18:06:03.374Z,49.20
2018-09-01T18:08:35.076Z,49.60
2018-09-01T18:11:06.325Z,49.70
2018-09-01T18:13:37.499Z,49.50
2018-09-01T18:16:08.946Z,50.10
2018-09-01T18:18:40.144Z,50.50
2018-09-01T18:21:11.509Z,50.30
2018-09-01T18:23:42.654Z,51.00
2018-09-01T18:26:14.315Z,51.60
2018-09-01T18:28:45.489Z,51.40
2018-09-01T18:31:17.472Z,51.80
2018-09-01T18:33:48.824Z,52.30
2018-09-01T18:36:20.216Z,52.50
2018-09-01T18:38:51.804Z,52.70
2018-09-01T18:41:23.462Z,53.20
2018-09-01T18:43:54.758Z,53.00
2018-09-01T18:46:25.957Z,53.80
2018-09-01T18:48:57.151Z,54.00
2018-09-01T18:51:28.163Z,54.60
2018-09-01T18:53:59.542Z,55.20
2018-09-01T18:56:30.805Z,55.40
2018-09-01T18:59:02.105Z,56.20
2018-09-01T19:01:33.127Z,56.40
2018-09-01T19:04:04.539Z,57.00
2018-09-01T19:06:35.852Z,56.80
2018-09-01T19:09:07.990Z,56.90
2018-09-01T19:11:39.239Z,57.20
2018-09-01T19:14:10.305Z,57.60
2018-09-01T19:16:41.423Z,57.80
2018-09-01T19:19:12.600Z,58.40
2018-09-01T19:21:43.816Z,59.10
2018-09-01T19:24:14.859Z,59.20
2018-09-01T19:26:46.314Z,59.90
2018-09-01T19:29:17.575Z,59.90
2018-09-01T19:31:48.826Z,61.00
2018-09-01T19:34:19.954Z,61.00
2018-09-01T19:36:51.395Z,60.80
2018-09-01T19:39:22.764Z,61.20
2018-09-01T19:41:53.748Z,61.80
2018-09-01T19:44:25.559Z,62.10
2018-09-01T19:46:56.958Z,62.00
2018-09-01T19:49:28.297Z,62.20
2018-09-01T19:51:59.491Z,62.10
2018-09-01T19:54:30.948Z,62.60
2018-09-01T19:57:02.412Z,63.70
2018-09-01T19:59:33.435Z,63.60
2018-09-01T20:02:04.623Z,63.00
2018-09-01T20:04:35.749Z,62.90
2018-09-01T20:07:06.879Z,63.50
2018-09-01T20:09:38.235Z,64.10
2018-09-01T20:12:10.491Z,64.50
2018-09-01T20:14:41.903Z,64.70
2018-09-01T20:17:13.156Z,64.70
2018-09-01T20:19:44.700Z,65.20
2018-09-01T20:22:15.949Z,65.60
2018-09-01T20:24:46.939Z,65.80
2018-09-01T20:27:17.989Z,66.30
2018-09-01T20:29:49.571Z,66.80
2018-09-01T20:32:20.989Z,67.20
2018-09-01T20:34:52.236Z,67.30
2018-09-01T20:37:23.568Z,67.40
2018-09-01T20:39:54.712Z,68.00
2018-09-01T20:42:26.064Z,67.60
2018-09-01T20:44:57.255Z,67.90
2018-09-01T20:47:28.267Z,68.40
2018-09-01T20:49:59.452Z,68.90
2018-09-01T20:52:30.637Z,68.90
2018-09-01T20:55:01.832Z,69.00
2018-09-01T20:57:34.380Z,68.90
2018-09-01T21:00:06.392Z,69.10
2018-09-01T21:02:37.568Z,69.50
2018-09-01T21:05:09.047Z,69.60
2018-09-01T21:07:40.488Z,69.80
2018-09-01T21:10:11.794Z,70.30
2018-09-01T21:12:42.964Z,70.70
2018-09-01T21:15:14.328Z,70.40
2018-09-01T21:17:45.527Z,71.20
2018-09-01T21:20:16.566Z,71.60
2018-09-01T21:22:47.895Z,71.60
2018-09-01T21:25:19.095Z,71.60
2018-09-01T21:27:50.251Z,72.00
2018-09-01T21:30:21.449Z,72.00
2018-09-01T21:32:52.635Z,71.90
2018-09-01T21:35:23.888Z,72.30
2018-09-01T21:37:55.227Z,73.30
2018-09-01T21:40:26.230Z,72.80
2018-09-01T21:42:57.477Z,73.20
2018-09-01T21:45:28.623Z,73.30
2018-09-01T21:47:59.802Z,73.60
2018-09-01T21:50:31.070Z,73.70
2018-09-01T21:53:02.792Z,73.40
2018-09-01T21:55:34.743Z,73.80
2018-09-01T21:58:06.091Z,74.70
2018-09-01T22:00:38.288Z,74.90
2018-09-01T22:03:09.874Z,75.20
2018-09-01T22:05:41.366Z,75.20
2018-09-01T22:08:12.733Z,75.70
2018-09-01T22:10:44.094Z,75.70
2018-09-01T22:13:15.520Z,76.80
2018-09-01T22:15:46.928Z,76.60
2018-09-01T22:18:18.243Z,76.30
2018-09-01T22:20:49.415Z,76.70
2018-09-01T22:23:20.688Z,77.20
2018-09-01T22:25:52.124Z,77.20
2018-09-01T22:28:23.397Z,77.70
2018-09-01T22:30:54.583Z,78.40
2018-09-01T22:33:26.024Z,79.50
2018-09-01T22:35:57.717Z,79.70
2018-09-01T22:38:29.237Z,79.60
2018-09-01T22:41:00.908Z,80.10
2018-09-01T22:43:32.047Z,80.30
2018-09-01T22:46:03.440Z,81.10
2018-09-01T22:48:34.811Z,80.40
2018-09-01T22:51:06.184Z,80.60
2018-09-01T22:53:37.567Z,81.30
2018-09-01T22:56:08.785Z,81.80
2018-09-01T22:58:40.444Z,82.30
2018-09-01T23:01:12.025Z,83.00
2018-09-01T23:03:43.325Z,83.20
2018-09-01T23:06:14.767Z,83.60
2018-09-01T23:08:46.135Z,84.10
2018-09-01T23:11:17.495Z,84.60
2018-09-01T23:13:49.119Z,84.50
2018-09-01T23:16:20.288Z,84.80
2018-09-01T23:18:51.459Z,84.90
2018-09-01T23:21:22.676Z,85.60
2018-09-01T23:23:54.717Z,86.80
2018-09-01T23:26:26.297Z,86.50
2018-09-01T23:28:57.582Z,86.70
2018-09-01T23:31:29.278Z,87.50
2018-09-01T23:34:00.581Z,88.00
2018-09-01T23:36:32.193Z,88.30
2018-09-01T23:39:03.721Z,88.60
2018-09-01T23:41:35.021Z,88.60
2018-09-01T23:44:06.256Z,88.20
2018-09-01T23:46:37.755Z,88.80
2018-09-01T23:49:09.308Z,89.10
2018-09-01T23:51:40.660Z,89.50
2018-09-01T23:54:11.762Z,90.00
2018-09-01T23:56:43.765Z,90.70
2018-09-01T23:59:14.983Z,90.80
